Time;durP1;ratioP1;P1;durP2;ratioP2;P2;SDS_P1;SDS_P2;PMS_P1;PMS_P2;Temp;Humidity;BMP_temperature;BMP_pressure;BME280_temperature;BME280_humidity;BME280_pressure;Samples;Min_cycle;Max_cycle;Signal;HPM_P1;HPM_P2
2021/06/11 00:01:15;;;;;;;0.10;0.10;;;;;;;13.77;64.14;101300.28;5044282;28;20048;-86
2021/06/11 00:04:47;;;;;;;0.10;0.10;;;;;;;13.70;64.04;101302.50;5042022;28;20053;-84
2021/06/11 00:07:20;;;;;;;0.13;0.13;;;;;;;13.67;65.16;101300.34;5045581;28;20049;-86
2021/06/11 00:09:53;;;;;;;0.10;0.10;;;;;;;13.66;64.69;101299.56;5036524;28;20046;-84
2021/06/11 00:12:30;;;;;;;0.10;0.10;;;;;;;13.60;66.22;101296.03;5048828;28;20046;-84
2021/06/11 00:15:11;;;;;;;0.20;0.20;;;;;;;13.63;65.18;101300.13;5033136;28;20050;-85
2021/06/11 00:17:57;;;;;;;0.10;0.10;;;;;;;13.51;65.96;101295.00;5052163;28;20485;-85
2021/06/11 00:21:34;;;;;;;0.10;0.10;;;;;;;13.46;66.29;101288.75;5060169;28;20053;-84
2021/06/11 00:24:11;;;;;;;0.20;0.20;;;;;;;13.21;66.22;101242.13;5041899;28;20049;-85
2021/06/11 00:30:16;;;;;;;0.10;0.10;;;;;;;13.37;67.43;101277.63;5039534;28;20045;-85
2021/06/11 00:33:51;;;;;;;0.10;0.10;;;;;;;13.44;67.98;101286.31;5041591;28;20057;-85
2021/06/11 00:36:24;;;;;;;0.20;0.10;;;;;;;13.38;68.00;101290.16;5045225;28;20045;-84
2021/06/11 00:43:31;;;;;;;0.10;0.10;;;;;;;13.16;69.12;101283.19;5035247;28;20415;-85
2021/06/11 00:46:06;;;;;;;0.10;0.10;;;;;;;13.03;70.87;101265.47;5058642;28;20052;-85
2021/06/11 00:48:40;;;;;;;0.20;0.20;;;;;;;13.16;70.07;101283.19;5053830;28;20076;-85
2021/06/11 00:51:14;;;;;;;0.10;0.10;;;;;;;13.04;70.30;101272.59;5036426;28;20049;-84
2021/06/11 00:53:49;;;;;;;0.10;0.10;;;;;;;12.91;70.87;101274.03;5039522;28;20486;-85
2021/06/11 00:56:22;;;;;;;0.13;0.13;;;;;;;12.94;71.22;101272.66;5055188;28;20104;-86
2021/06/11 00:58:55;;;;;;;0.10;0.10;;;;;;;12.91;71.54;101278.66;5050776;28;20100;-85
2021/06/11 01:01:29;;;;;;;0.10;0.10;;;;;;;12.89;72.09;101267.22;5041037;28;20040;-85
2021/06/11 01:04:04;;;;;;;0.45;0.15;;;;;;;12.86;72.43;101268.59;5040635;28;20060;-85
2021/06/11 01:07:27;;;;;;;0.20;0.10;;;;;;;12.82;72.90;101266.72;5051567;28;20065;-84
2021/06/11 01:10:01;;;;;;;0.13;0.13;;;;;;;12.79;73.00;101264.50;5042135;28;20056;-85
2021/06/11 01:12:38;;;;;;;0.10;0.10;;;;;;;12.67;73.25;101252.00;5046751;28;20571;-84
2021/06/11 01:15:12;;;;;;;0.20;0.20;;;;;;;12.72;73.53;101264.84;5042597;28;20061;-85
2021/06/11 01:18:41;;;;;;;0.10;0.10;;;;;;;12.81;73.99;101270.53;5041531;28;20056;-84
2021/06/11 01:21:17;;;;;;;0.10;0.10;;;;;;;12.86;72.43;101254.94;5043447;28;20053;-84
2021/06/11 01:24:01;;;;;;;0.10;0.10;;;;;;;12.87;73.37;101256.56;5032754;28;20486;-86
2021/06/11 01:30:41;;;;;;;0.13;0.13;;;;;;;12.79;72.97;101234.47;5041363;28;20032;-85
2021/06/11 01:33:16;;;;;;;0.10;0.10;;;;;;;12.84;73.99;101242.66;5050812;28;20056;-85
2021/06/11 01:35:55;;;;;;;0.13;0.13;;;;;;;12.80;75.27;101249.75;5043728;28;20060;-84
2021/06/11 01:38:26;;;;;;;0.20;0.20;;;;;;;12.81;74.71;101249.47;5044512;28;20057;-86
2021/06/11 01:44:46;;;;;;;0.10;0.10;;;;;;;12.94;74.23;101239.88;5036542;28;20064;-85
2021/06/11 01:51:46;;;;;;;0.20;0.20;;;;;;;12.70;76.33;101239.72;5040624;28;20044;-85
2021/06/11 01:54:14;;;;;;;0.20;0.20;;;;;;;12.77;76.24;101253.88;5051011;28;20413;-85
2021/06/11 01:56:50;;;;;;;0.20;0.20;;;;;;;12.80;75.13;101233.38;5044380;28;20068;-85
2021/06/11 01:59:24;;;;;;;0.20;0.20;;;;;;;12.81;75.42;101237.75;5040556;28;20052;-84
2021/06/11 02:02:10;;;;;;;0.20;0.20;;;;;;;12.82;76.09;101256.59;5038286;28;20060;-86
2021/06/11 02:05:29;;;;;;;0.10;0.10;;;;;;;12.80;76.00;101247.88;5050341;28;20049;-84
2021/06/11 02:12:29;;;;;;;;;;;;;;;12.78;76.71;101249.25;5053888;28;20503;-85
2021/06/11 02:18:59;;;;;;;0.13;0.13;;;;;;;12.80;76.17;101244.31;5036933;28;20049;-85
2021/06/11 02:26:00;;;;;;;0.57;0.20;;;;;;;12.97;75.35;101255.69;5046671;28;20051;-85
2021/06/11 02:28:33;;;;;;;0.10;0.10;;;;;;;12.93;75.07;101258.16;5046726;28;20052;-85
2021/06/11 02:31:01;;;;;;;0.10;0.10;;;;;;;12.86;74.98;101260.38;5049269;28;20045;-86
2021/06/11 02:33:35;;;;;;;0.10;0.10;;;;;;;12.87;75.35;101258.47;5045014;28;20056;-85
2021/06/11 02:36:59;;;;;;;0.10;0.10;;;;;;;12.88;74.98;101251.91;5049303;28;20041;-86
2021/06/11 02:39:32;;;;;;;0.20;0.20;;;;;;;12.89;75.07;101253.56;5046310;28;20054;-85
2021/06/11 02:42:02;;;;;;;;;;;;;;;12.86;75.72;101254.94;5050940;28;20057;-85
2021/06/11 02:44:47;;;;;;;0.10;0.10;;;;;;;12.89;74.82;101250.81;5041900;28;19928;-85
2021/06/11 02:47:24;;;;;;;0.10;0.10;;;;;;;12.91;74.30;101254.06;5039753;28;20192;-85
2021/06/11 02:50:03;;;;;;;0.10;0.10;;;;;;;12.88;74.78;101251.91;5052906;28;20493;-85
2021/06/11 03:05:02;;;;;;;0.10;0.10;;;;;;;12.78;75.95;101241.06;5049451;28;20045;-85
2021/06/11 03:07:33;;;;;;;0.20;0.20;;;;;;;12.87;75.37;101250.28;5035267;28;20052;-85
2021/06/11 03:10:23;;;;;;;0.20;0.20;;;;;;;12.83;75.80;101252.75;5043523;28;20045;-84
2021/06/11 03:14:01;;;;;;;0.10;0.10;;;;;;;12.85;75.97;101252.47;5033687;28;20057;-85
2021/06/11 03:16:30;;;;;;;0.10;0.10;;;;;;;12.82;76.44;101261.25;5045116;28;20056;-85
2021/06/11 03:19:02;;;;;;;0.10;0.10;;;;;;;12.89;76.48;101259.00;5053415;28;20044;-85
2021/06/11 03:21:48;;;;;;;0.20;0.20;;;;;;;12.95;76.58;101263.34;5051909;28;20053;-85
2021/06/11 03:28:11;;;;;;;0.10;0.10;;;;;;;12.95;75.67;101249.69;5047731;28;20048;-85
2021/06/11 03:30:48;;;;;;;0.25;0.20;;;;;;;12.93;76.27;101252.69;5039887;28;20079;-86
2021/06/11 03:33:56;;;;;;;0.20;0.20;;;;;;;12.95;76.29;101262.53;5033640;28;20076;-85
2021/06/11 03:36:31;;;;;;;0.20;0.20;;;;;;;12.97;76.60;101255.69;5053540;28;20049;-85
2021/06/11 03:39:15;;;;;;;0.10;0.10;;;;;;;12.96;77.07;101258.72;5037046;28;20046;-86
2021/06/11 03:41:50;;;;;;;0.10;0.10;;;;;;;12.76;76.72;101219.50;5032460;28;20056;-84
2021/06/11 03:44:19;;;;;;;0.10;0.10;;;;;;;13.03;76.57;101254.56;5044129;28;20049;-84
2021/06/11 03:46:55;;;;;;;0.20;0.20;;;;;;;13.08;77.51;101251.00;5033543;28;20053;-84
2021/06/11 03:49:26;;;;;;;0.13;0.13;;;;;;;13.13;76.72;101250.13;5033664;28;20057;-85
2021/06/11 03:56:33;;;;;;;0.10;0.10;;;;;;;13.01;76.16;101188.47;5060860;28;20032;-85
2021/06/11 03:59:09;;;;;;;0.20;0.20;;;;;;;13.34;75.81;101242.59;5047032;28;20045;-85
2021/06/11 04:01:46;;;;;;;0.10;0.10;;;;;;;13.33;76.30;101252.72;5044099;28;20794;-85
2021/06/11 04:04:45;;;;;;;0.20;0.20;;;;;;;13.33;76.44;101250.00;5049043;28;20520;-85
2021/06/11 04:07:23;;;;;;;0.10;0.10;;;;;;;13.30;76.74;101253.31;5051667;28;20053;-84
2021/06/11 04:10:04;;;;;;;0.17;0.17;;;;;;;13.21;76.50;101233.13;5047294;28;20045;-85
2021/06/11 04:12:43;;;;;;;0.20;0.20;;;;;;;13.23;76.72;101233.66;5036208;28;20052;-85
2021/06/11 04:15:18;;;;;;;0.10;0.10;;;;;;;13.31;77.28;101254.91;5049781;28;20061;-85
2021/06/11 04:22:25;;;;;;;0.20;0.20;;;;;;;13.23;76.61;101253.63;5046027;28;20060;-85
2021/06/11 04:25:06;;;;;;;0.10;0.10;;;;;;;12.87;76.16;101221.06;5042049;28;20053;-85
2021/06/11 04:27:44;;;;;;;0.10;0.10;;;;;;;13.18;76.76;101258.31;5034101;28;20485;-85
2021/06/11 04:31:09;;;;;;;0.30;0.20;;;;;;;13.12;77.06;101257.53;5041175;28;20045;-85
2021/06/11 04:34:41;;;;;;;0.10;0.10;;;;;;;13.15;77.13;101258.88;5042157;28;20041;-84
2021/06/11 04:38:03;;;;;;;0.30;0.10;;;;;;;13.12;77.64;101264.88;5041693;28;20879;-86
2021/06/11 04:40:31;;;;;;;0.20;0.20;;;;;;;13.09;77.54;101271.72;5048175;28;20056;-82
2021/06/11 04:43:38;;;;;;;0.10;0.10;;;;;;;13.13;77.28;101267.34;5041425;28;20045;-85
2021/06/11 04:46:13;;;;;;;0.10;0.10;;;;;;;13.08;76.90;101256.47;5047455;28;20522;-86
2021/06/11 04:48:46;;;;;;;0.10;0.10;;;;;;;13.04;77.68;101261.66;5047468;28;20049;-85
2021/06/11 04:51:21;;;;;;;0.10;0.10;;;;;;;13.18;77.93;101267.31;5034753;28;20041;-86
2021/06/11 04:53:56;;;;;;;0.10;0.10;;;;;;;13.33;76.77;101263.66;5046686;28;20600;-85
2021/06/11 04:56:28;;;;;;;0.20;0.20;;;;;;;13.37;76.69;101262.03;5039734;28;20048;-85
2021/06/11 04:59:08;;;;;;;0.10;0.10;;;;;;;13.53;76.34;101267.38;5047249;28;20060;-85
2021/06/11 05:01:41;;;;;;;0.17;0.17;;;;;;;13.45;76.73;101249.69;5044198;28;20052;-85
2021/06/11 05:04:17;;;;;;;0.10;0.10;;;;;;;13.63;75.51;101252.81;5039688;28;20056;-85
2021/06/11 05:06:51;;;;;;;0.20;0.20;;;;;;;13.92;75.85;101255.53;5053526;28;20049;-86
2021/06/11 05:09:26;;;;;;;0.20;0.20;;;;;;;14.99;71.89;101252.69;5049393;28;20056;-85
2021/06/11 05:12:00;;;;;;;0.20;0.20;;;;;;;16.87;65.87;101247.97;5042629;28;20053;-85
2021/06/11 05:14:34;;;;;;;0.20;0.20;;;;;;;17.30;63.79;101235.78;5050379;28;20053;-85
2021/06/11 05:17:11;;;;;;;0.20;0.20;;;;;;;18.52;60.26;101236.44;5038050;28;20049;-85
2021/06/11 05:19:46;;;;;;;0.20;0.20;;;;;;;19.76;57.65;101223.47;5050031;28;20123;-86
2021/06/11 05:22:21;;;;;;;0.20;0.20;;;;;;;20.67;54.52;101218.53;5037577;28;20612;-86
2021/06/11 05:24:55;;;;;;;0.20;0.20;;;;;;;21.47;52.99;101227.81;5032355;28;20046;-86
2021/06/11 05:27:28;;;;;;;0.10;0.10;;;;;;;21.65;51.70;101227.66;5045452;28;20054;-85
2021/06/11 05:30:03;;;;;;;0.20;0.20;;;;;;;21.92;50.61;101224.25;5039547;28;20041;-87
2021/06/11 05:33:40;;;;;;;0.20;0.20;;;;;;;22.37;49.32;101228.13;5039608;28;20057;-85
2021/06/11 05:36:13;;;;;;;0.10;0.10;;;;;;;22.84;48.28;101218.47;5038405;28;20057;-87
2021/06/11 05:38:48;;;;;;;0.10;0.10;;;;;;;23.01;48.59;101217.38;5033848;28;20056;-86
2021/06/11 05:41:18;;;;;;;0.10;0.10;;;;;;;22.31;49.36;101220.38;5045758;28;20059;-86
2021/06/11 05:44:40;;;;;;;0.15;0.10;;;;;;;21.71;50.94;101227.13;5037637;28;20050;-86
2021/06/11 05:47:14;;;;;;;0.00;0.00;;;;;;;20.18;56.23;101226.44;5032742;28;20049;-86
2021/06/11 05:50:31;;;;;;;0.10;0.10;;;;;;;19.60;58.55;101237.78;5040148;28;20049;-85
2021/06/11 05:53:05;;;;;;;0.10;0.10;;;;;;;19.14;59.33;101233.78;5032995;28;20048;-86
2021/06/11 05:56:45;;;;;;;0.10;0.10;;;;;;;19.79;62.04;101226.38;5046208;28;20049;-86
2021/06/11 05:59:13;;;;;;;0.10;0.10;;;;;;;19.67;57.90;101216.00;5047432;28;20048;-86
2021/06/11 06:02:12;;;;;;;0.10;0.10;;;;;;;19.08;60.99;101235.88;5048975;28;20064;-86
2021/06/11 06:13:46;;;;;;;0.10;0.10;;;;;;;19.45;61.80;101224.50;5042183;28;20423;-86
2021/06/11 06:16:20;;;;;;;0.17;0.17;;;;;;;19.22;60.54;101218.34;5046684;28;20056;-85
2021/06/11 06:18:50;;;;;;;0.10;0.10;;;;;;;19.21;63.70;101209.28;5043421;28;20061;-86
2021/06/11 06:21:44;;;;;;;0.10;0.10;;;;;;;18.95;60.51;101226.63;5056915;28;20488;-87
2021/06/11 06:24:20;;;;;;;0.10;0.10;;;;;;;19.17;61.54;101220.16;5032021;28;20049;-87
2021/06/11 06:27:51;;;;;;;0.10;0.10;;;;;;;18.88;59.43;101226.31;5038340;28;20558;-86
2021/06/11 06:30:22;;;;;;;0.10;0.10;;;;;;;18.93;61.46;101217.84;5051314;28;20064;-86
2021/06/11 06:36:25;;;;;;;0.10;0.10;;;;;;;18.55;62.10;101220.38;5050622;28;20060;-86
2021/06/11 06:39:01;;;;;;;0.10;0.10;;;;;;;18.53;61.02;101220.69;5051068;28;20128;-86
2021/06/11 06:41:58;;;;;;;0.10;0.10;;;;;;;18.66;58.67;101214.25;5036092;28;20571;-85
2021/06/11 06:45:01;;;;;;;0.10;0.10;;;;;;;19.05;60.54;101225.50;5035759;28;20053;-86
2021/06/11 06:47:36;;;;;;;0.10;0.10;;;;;;;18.97;60.69;101195.97;5043658;28;20049;-86
2021/06/11 06:50:13;;;;;;;0.10;0.10;;;;;;;19.24;58.17;101216.91;5034843;28;20072;-86
2021/06/11 06:52:53;;;;;;;0.10;0.10;;;;;;;19.13;57.49;101207.34;5033786;28;20064;-85
2021/06/11 06:55:22;;;;;;;0.20;0.20;;;;;;;19.29;58.54;101204.88;5034504;28;20496;-85
2021/06/11 06:57:56;;;;;;;0.10;0.10;;;;;;;19.65;60.03;101214.72;5034922;28;20061;-86
2021/06/11 07:00:30;;;;;;;0.10;0.10;;;;;;;19.75;59.92;101214.38;5046304;28;20042;-86
2021/06/11 07:03:04;;;;;;;0.10;0.10;;;;;;;19.92;58.99;101218.25;5038689;28;20045;-85
2021/06/11 07:05:33;;;;;;;0.10;0.10;;;;;;;19.90;60.11;101203.94;5046673;28;21033;-85
2021/06/11 07:08:10;;;;;;;0.10;0.10;;;;;;;19.83;57.29;101215.50;5050261;28;20058;-85
2021/06/11 07:11:07;;;;;;;0.10;0.10;;;;;;;19.67;58.94;101215.22;5044810;28;20040;-85
2021/06/11 07:13:40;;;;;;;0.10;0.10;;;;;;;19.88;60.75;101199.56;5040577;28;20053;-85
2021/06/11 07:16:14;;;;;;;0.17;0.17;;;;;;;19.91;60.30;101219.38;5040178;28;20518;-85
2021/06/11 07:18:53;;;;;;;0.20;0.20;;;;;;;20.05;58.06;101215.28;5037835;28;20041;-85
2021/06/11 07:22:17;;;;;;;0.10;0.10;;;;;;;19.81;56.55;101209.50;5048144;28;20100;-85
2021/06/11 07:25:19;;;;;;;0.10;0.10;;;;;;;20.10;56.53;101219.00;5050867;28;20044;-86
2021/06/11 07:27:55;;;;;;;0.10;0.10;;;;;;;20.06;57.23;101188.44;5046263;28;20060;-85
2021/06/11 07:30:29;;;;;;;0.10;0.10;;;;;;;20.31;57.08;101219.06;5054403;28;20056;-85
2021/06/11 07:33:07;;;;;;;0.10;0.10;;;;;;;20.17;58.15;101220.09;5041847;28;20532;-86
2021/06/11 07:35:44;;;;;;;0.10;0.10;;;;;;;20.25;59.65;101206.59;5045913;28;20061;-85
2021/06/11 07:38:18;;;;;;;0.10;0.10;;;;;;;20.32;56.62;101218.72;5047767;28;20044;-84
2021/06/11 07:40:53;;;;;;;0.10;0.10;;;;;;;20.50;56.93;101224.16;5047325;28;20082;-86
2021/06/11 07:43:26;;;;;;;0.10;0.10;;;;;;;20.57;53.89;101224.44;5045792;28;20075;-85
2021/06/11 07:46:04;;;;;;;0.10;0.10;;;;;;;20.72;54.21;101215.56;5047965;28;20485;-85
2021/06/11 07:48:32;;;;;;;0.10;0.10;;;;;;;20.44;55.35;101211.66;5046871;28;20060;-85
2021/06/11 07:51:13;;;;;;;0.10;0.10;;;;;;;20.67;56.93;101218.53;5042890;28;20069;-85
2021/06/11 07:53:41;;;;;;;0.10;0.10;;;;;;;21.05;58.38;101219.56;5041234;28;20049;-83
2021/06/11 07:56:16;;;;;;;0.10;0.10;;;;;;;20.77;53.58;101224.81;5044527;28;20056;-85
2021/06/11 07:58:50;;;;;;;0.10;0.10;;;;;;;20.94;53.72;101221.94;5045827;28;20052;-85
2021/06/11 08:01:32;;;;;;;0.10;0.10;;;;;;;20.61;52.04;101211.56;5039087;28;20052;-85
2021/06/11 08:04:02;;;;;;;0.10;0.10;;;;;;;20.85;55.91;101227.53;5046777;28;20049;-84
2021/06/11 08:06:49;;;;;;;0.10;0.10;;;;;;;20.91;52.13;101225.38;5038538;28;20060;-84
2021/06/11 08:09:17;;;;;;;0.10;0.10;;;;;;;20.95;50.60;101223.56;5044609;28;20878;-83
2021/06/11 08:11:48;;;;;;;0.10;0.10;;;;;;;21.12;54.28;101228.13;5044876;28;20401;-85
2021/06/11 08:14:22;;;;;;;0.10;0.10;;;;;;;20.89;52.03;101187.00;5045018;28;20072;-85
2021/06/11 08:17:11;;;;;;;0.10;0.10;;;;;;;21.31;53.93;101229.59;5046169;28;20059;-85
2021/06/11 08:19:45;;;;;;;0.10;0.10;;;;;;;21.16;52.00;101212.47;5038240;28;20477;-84
2021/06/11 08:22:19;;;;;;;0.10;0.10;;;;;;;21.31;50.09;101221.28;5040116;28;20067;-85
2021/06/11 08:24:53;;;;;;;0.10;0.10;;;;;;;21.30;51.56;101216.91;5039689;28;20049;-85
2021/06/11 08:27:30;;;;;;;0.10;0.10;;;;;;;21.40;53.88;101209.00;5044739;28;20064;-86
2021/06/11 08:30:08;;;;;;;0.10;0.10;;;;;;;21.44;50.06;101222.97;5041669;28;20060;-84
2021/06/11 08:32:47;;;;;;;0.10;0.10;;;;;;;21.45;50.52;101207.16;5044871;28;20048;-86
2021/06/11 08:35:25;;;;;;;0.13;0.10;;;;;;;21.78;53.60;101226.56;5045605;28;20077;-86
2021/06/11 08:37:59;;;;;;;0.05;0.05;;;;;;;21.67;51.77;101203.22;5046903;28;20052;-85
2021/06/11 08:40:32;;;;;;;0.10;0.10;;;;;;;21.92;51.20;101195.75;5037760;28;20056;-85
2021/06/11 08:43:07;;;;;;;0.10;0.10;;;;;;;21.82;49.48;101221.13;5043738;28;20048;-85
2021/06/11 08:45:35;;;;;;;0.10;0.10;;;;;;;22.11;51.73;101216.53;5043526;28;20056;-84
2021/06/11 08:48:11;;;;;;;0.10;0.10;;;;;;;22.36;53.49;101198.78;5040240;28;20068;-85
2021/06/11 08:50:46;;;;;;;0.10;0.10;;;;;;;22.33;51.03;101180.06;5044304;28;20060;-84
2021/06/11 08:53:34;;;;;;;0.10;0.10;;;;;;;22.34;49.90;101214.16;5040979;28;20061;-83
2021/06/11 08:56:03;;;;;;;0.80;0.10;;;;;;;22.41;50.07;101203.28;5045982;28;20525;-86
2021/06/11 08:58:39;;;;;;;0.10;0.10;;;;;;;22.53;49.60;101208.00;5043207;28;20057;-84
2021/06/11 09:01:14;;;;;;;0.10;0.10;;;;;;;22.66;50.87;101219.88;5041569;28;20060;-85
2021/06/11 09:03:56;;;;;;;0.10;0.10;;;;;;;22.67;50.82;101214.00;5043654;28;20496;-83
2021/06/11 09:06:31;;;;;;;0.10;0.10;;;;;;;22.68;49.20;101212.84;5042740;28;20072;-86
2021/06/11 09:09:01;;;;;;;0.03;0.03;;;;;;;22.49;48.42;101218.97;5044768;28;20079;-84
2021/06/11 09:11:37;;;;;;;0.20;0.20;;;;;;;22.89;52.63;101218.22;5043192;28;20056;-85
2021/06/11 09:14:12;;;;;;;0.10;0.10;;;;;;;22.72;49.21;101216.53;5044957;28;20747;-85
2021/06/11 09:16:51;;;;;;;0.10;0.10;;;;;;;22.92;49.96;101217.53;5040895;28;20068;-85
2021/06/11 09:19:30;;;;;;;0.10;0.10;;;;;;;23.17;49.33;101217.44;5045754;28;20908;-87
2021/06/11 09:22:08;;;;;;;0.10;0.10;;;;;;;23.09;48.70;101199.78;5044467;28;20401;-84
2021/06/11 09:24:45;;;;;;;0.88;0.10;;;;;;;23.12;48.62;101200.22;5041656;28;20056;-87
2021/06/11 09:27:23;;;;;;;0.10;0.10;;;;;;;22.95;46.57;101212.41;5043906;28;20075;-86
2021/06/11 09:30:11;;;;;;;0.10;0.10;;;;;;;22.72;48.69;101205.44;5039950;28;20068;-87
2021/06/11 09:32:58;;;;;;;0.10;0.10;;;;;;;22.97;47.07;101204.56;5040794;28;20678;-86
2021/06/11 09:35:37;;;;;;;0.20;0.20;;;;;;;23.09;48.18;101201.72;5040663;28;20056;-85
2021/06/11 09:38:18;;;;;;;0.10;0.10;;;;;;;23.50;50.40;101194.16;5044906;28;20051;-87
2021/06/11 09:41:08;;;;;;;0.10;0.10;;;;;;;23.71;48.79;101205.06;5041061;28;20059;-84
2021/06/11 09:43:54;;;;;;;0.10;0.10;;;;;;;23.64;48.22;101193.72;5043153;28;20067;-85
2021/06/11 09:46:23;;;;;;;0.10;0.10;;;;;;;23.73;48.42;101205.47;5049432;28;20423;-86
2021/06/11 09:48:53;;;;;;;0.10;0.10;;;;;;;24.14;47.17;101201.75;5044140;28;20067;-85
2021/06/11 09:51:36;;;;;;;0.10;0.10;;;;;;;23.89;43.45;101196.38;5022809;28;20053;-85
2021/06/11 09:54:28;;;;;;;0.20;0.20;;;;;;;23.84;45.44;101194.66;5044640;28;20053;-85
2021/06/11 09:57:24;;;;;;;0.10;0.10;;;;;;;23.69;47.22;101196.25;5044346;28;20056;-84
2021/06/11 09:59:58;;;;;;;;;;;;;;;23.83;46.39;101195.00;5048293;28;20621;-85
2021/06/11 10:02:36;;;;;;;0.10;0.10;;;;;;;23.88;46.49;101176.13;5057723;28;19920;-84
2021/06/11 10:05:10;;;;;;;0.10;0.10;;;;;;;24.18;48.40;101191.50;5048791;28;20049;-85
2021/06/11 10:07:45;;;;;;;0.10;0.10;;;;;;;24.17;47.86;101185.16;5051514;28;20052;-86
2021/06/11 10:10:22;;;;;;;0.10;0.10;;;;;;;24.28;44.72;101194.56;5049759;28;20053;-86
2021/06/11 10:13:18;;;;;;;0.10;0.10;;;;;;;24.18;46.24;101183.16;5047563;28;20907;-85
2021/06/11 10:15:54;;;;;;;0.10;0.10;;;;;;;23.84;46.00;101179.94;5048530;28;20060;-84
2021/06/11 10:18:30;;;;;;;0.10;0.10;;;;;;;24.36;44.43;101183.59;5041000;28;20048;-83
2021/06/11 10:21:06;;;;;;;0.10;0.10;;;;;;;24.34;45.61;101181.16;5043832;28;20053;-85
2021/06/11 10:23:42;;;;;;;0.10;0.10;;;;;;;24.43;45.62;101183.75;5045433;28;20398;-87
2021/06/11 10:26:24;;;;;;;0.10;0.10;;;;;;;24.30;44.27;101174.72;5046065;28;20597;-87
2021/06/11 10:28:58;;;;;;;0.10;0.10;;;;;;;24.07;44.00;101182.91;5046329;28;20533;-85
2021/06/11 10:31:36;;;;;;;0.10;0.10;;;;;;;24.21;45.39;101172.16;5046624;28;20045;-85
2021/06/11 10:34:14;;;;;;;0.10;0.10;;;;;;;24.39;45.88;101183.69;5050035;28;20044;-87
2021/06/11 10:36:44;;;;;;;0.10;0.10;;;;;;;24.04;42.80;101178.91;5046044;28;20051;-86
2021/06/11 10:39:28;;;;;;;0.10;0.10;;;;;;;24.44;46.86;101166.72;5042140;28;20052;-85
2021/06/11 10:42:08;;;;;;;0.10;0.10;;;;;;;24.47;45.12;101173.50;5042333;28;20060;-85
2021/06/11 10:44:45;;;;;;;0.10;0.10;;;;;;;24.63;44.12;101175.47;5045329;28;20517;-85
2021/06/11 10:47:38;;;;;;;0.10;0.10;;;;;;;24.57;42.73;101181.28;5024413;28;20141;-85
2021/06/11 10:50:14;;;;;;;0.10;0.10;;;;;;;24.23;43.59;101174.56;5047162;28;20054;-86
2021/06/11 10:52:50;;;;;;;0.65;0.20;;;;;;;24.31;44.16;101176.34;5028861;28;20127;-85
2021/06/11 10:55:51;;;;;;;0.10;0.10;;;;;;;24.25;44.46;101173.03;5042226;28;20056;-85
2021/06/11 10:58:34;;;;;;;0.20;0.20;;;;;;;23.94;45.15;101163.53;5047900;28;20054;-86
2021/06/11 11:01:22;;;;;;;0.10;0.10;;;;;;;24.53;44.70;101172.06;5045722;28;20061;-86
2021/06/11 11:04:35;;;;;;;0.10;0.10;;;;;;;24.91;46.17;101162.16;5044847;28;20045;-88
2021/06/11 11:07:33;;;;;;;0.10;0.10;;;;;;;24.83;44.16;101162.38;5045280;28;20064;-85
2021/06/11 11:10:08;;;;;;;0.10;0.10;;;;;;;24.73;43.37;101164.56;5045088;28;20052;-85
2021/06/11 11:13:11;;;;;;;0.10;0.10;;;;;;;25.20;43.82;101157.13;5043075;28;20511;-87
2021/06/11 11:15:49;;;;;;;0.10;0.10;;;;;;;25.15;45.59;101165.81;5045704;28;20066;-85
2021/06/11 11:18:22;;;;;;;0.10;0.10;;;;;;;25.21;43.68;101163.53;5045147;28;20063;-84
2021/06/11 11:20:57;;;;;;;0.10;0.10;;;;;;;25.43;45.67;101154.41;5040530;28;20091;-87
2021/06/11 11:23:58;;;;;;;0.10;0.10;;;;;;;24.94;42.75;101160.59;5044176;28;20270;-85
2021/06/11 11:26:44;;;;;;;0.10;0.10;;;;;;;24.85;43.35;101143.34;5044455;28;20063;-87
2021/06/11 11:29:18;;;;;;;0.10;0.10;;;;;;;25.36;46.20;101150.72;5049792;28;20069;-86
2021/06/11 11:32:06;;;;;;;0.15;0.15;;;;;;;25.48;44.29;101158.06;5048952;28;20057;-87
2021/06/11 11:34:43;;;;;;;0.10;0.10;;;;;;;25.65;44.47;101154.00;5048546;28;20056;-85
2021/06/11 11:37:31;;;;;;;0.10;0.10;;;;;;;25.44;44.38;101155.25;5043627;28;20080;-88
2021/06/11 11:40:00;;;;;;;0.10;0.10;;;;;;;25.50;44.03;101148.16;5044849;28;21277;-87
2021/06/11 11:42:30;;;;;;;0.20;0.10;;;;;;;25.56;42.18;101143.91;5046153;28;20067;-86
2021/06/11 11:45:26;;;;;;;0.10;0.10;;;;;;;25.58;43.11;101149.09;5045705;28;20654;-86
2021/06/11 11:47:58;;;;;;;0.10;0.10;;;;;;;25.41;44.29;101145.63;5046821;28;20068;-88
2021/06/11 11:50:53;;;;;;;0.10;0.10;;;;;;;25.22;43.14;101149.22;5049420;28;20056;-86
2021/06/11 11:53:28;;;;;;;0.10;0.10;;;;;;;25.45;44.26;101129.78;5027746;28;20053;-88
2021/06/11 11:56:22;;;;;;;0.10;0.10;;;;;;;25.40;45.19;101146.00;5044722;28;20075;-85
2021/06/11 11:58:56;;;;;;;0.22;0.10;;;;;;;24.88;42.98;101131.47;5045751;28;20060;-88
2021/06/11 12:01:55;;;;;;;0.10;0.10;;;;;;;24.25;43.92;101141.63;5053901;28;20072;-87
2021/06/11 12:04:23;;;;;;;0.10;0.10;;;;;;;24.73;42.93;101138.72;5046214;28;20075;-86
2021/06/11 12:07:00;;;;;;;0.10;0.10;;;;;;;24.93;43.67;101137.53;5044907;28;20068;-87
2021/06/11 12:09:31;;;;;;;0.10;0.10;;;;;;;24.94;43.00;101125.25;5046528;28;20625;-88
2021/06/11 12:12:29;;;;;;;0.10;0.10;;;;;;;24.78;42.54;101122.53;5046541;28;20056;-87
2021/06/11 12:15:05;;;;;;;0.10;0.10;;;;;;;24.85;42.62;101130.22;5052379;28;20046;-86
2021/06/11 12:17:42;;;;;;;0.10;0.10;;;;;;;25.09;44.51;101122.72;5043929;28;20057;-86
2021/06/11 12:20:12;;;;;;;0.10;0.10;;;;;;;25.06;44.27;101112.31;5046365;28;20055;-86
2021/06/11 12:22:50;;;;;;;0.10;0.10;;;;;;;25.37;41.73;101104.94;5044689;28;20048;-86
2021/06/11 12:25:26;;;;;;;0.10;0.10;;;;;;;25.40;41.37;101110.59;5044830;28;20076;-87
2021/06/11 12:28:02;;;;;;;0.10;0.10;;;;;;;24.86;41.75;101086.47;5047392;28;20056;-86
2021/06/11 12:30:32;;;;;;;0.10;0.10;;;;;;;25.39;42.83;101110.97;5050564;28;20056;-86
2021/06/11 12:33:30;;;;;;;0.10;0.10;;;;;;;25.48;41.30;101113.50;5044952;28;21291;-86
2021/06/11 12:36:00;;;;;;;0.10;0.10;;;;;;;25.50;43.11;101108.38;5040719;28;20060;-88
2021/06/11 12:38:29;;;;;;;0.10;0.10;;;;;;;25.24;44.09;101088.38;5043965;28;20056;-86
2021/06/11 12:41:06;;;;;;;0.10;0.10;;;;;;;25.39;46.25;101117.31;5046800;28;20053;-85
2021/06/11 12:46:32;;;;;;;0.10;0.10;;;;;;;25.08;43.34;101108.00;5041789;28;20068;-86
2021/06/11 12:49:09;;;;;;;0.20;0.20;;;;;;;25.40;44.75;101105.00;5041841;28;20063;-85
2021/06/11 12:51:42;;;;;;;0.10;0.10;;;;;;;25.40;46.62;101093.88;5024615;28;20064;-86
2021/06/11 12:54:17;;;;;;;0.13;0.13;;;;;;;25.60;44.26;101099.38;5043867;28;20049;-86
2021/06/11 12:57:15;;;;;;;0.35;0.20;;;;;;;25.78;41.19;101094.06;5044564;28;20053;-87
2021/06/11 12:59:47;;;;;;;0.10;0.10;;;;;;;25.95;42.94;101090.75;5048074;28;20428;-88
2021/06/11 13:02:45;;;;;;;0.10;0.10;;;;;;;25.41;42.67;101100.22;5047955;28;20072;-89
2021/06/11 13:05:21;;;;;;;0.10;0.10;;;;;;;24.46;43.69;101055.06;5044837;28;20064;-87
2021/06/11 13:07:55;;;;;;;0.10;0.10;;;;;;;24.47;45.11;101076.13;5044693;28;20045;-88
2021/06/11 13:10:26;;;;;;;0.10;0.10;;;;;;;24.34;46.94;101089.38;5046814;28;20059;-88
2021/06/11 13:12:56;;;;;;;0.10;0.10;;;;;;;24.12;46.00;101088.09;5042959;28;20059;-87
2021/06/11 13:15:31;;;;;;;0.10;0.10;;;;;;;24.56;45.24;101096.22;5059419;28;20401;-86
2021/06/11 13:18:07;;;;;;;0.10;0.10;;;;;;;25.23;46.48;101095.16;5042582;28;20589;-88
2021/06/11 13:20:42;;;;;;;0.10;0.10;;;;;;;25.05;44.37;101061.41;5044955;28;20090;-87
2021/06/11 13:23:10;;;;;;;0.10;0.10;;;;;;;25.37;44.30;101089.03;5045027;28;20057;-87
2021/06/11 13:25:38;;;;;;;0.10;0.10;;;;;;;25.55;42.10;101089.34;5041549;28;20060;-86
2021/06/11 13:28:10;;;;;;;0.10;0.10;;;;;;;25.17;43.59;101098.59;5043181;28;20067;-87
2021/06/11 13:30:51;;;;;;;0.10;0.10;;;;;;;24.73;46.29;101088.63;5040987;28;20055;-87
2021/06/11 13:33:45;;;;;;;0.10;0.10;;;;;;;24.75;43.92;101094.63;5043601;28;20064;-88
2021/06/11 13:36:21;;;;;;;0.10;0.10;;;;;;;24.78;43.85;101054.94;5044621;28;20671;-88
2021/06/11 13:38:55;;;;;;;0.10;0.10;;;;;;;25.06;43.72;101051.84;5042852;28;20053;-87
2021/06/11 13:41:46;;;;;;;0.10;0.10;;;;;;;25.43;43.94;101065.25;5036550;28;20048;-88
2021/06/11 13:44:19;;;;;;;0.20;0.10;;;;;;;25.67;43.15;101070.81;5049413;28;20052;-88